Elmwood, NE (68349)

5:25 PM CST on December 09, 2016 (GMT -0600)
274th & Fletcher Ave | | Change Station

Elev 1290 ft 40.87 °N, 96.33 °W | Updated 6 hours ago

Overcast
Overcast
62 °F
Feels Like 62 °F
N
17
Wind Variable Wind from SSE
Gusts 25 mph

Today
High -- | Low -- °F
--% Chance of Precip.
Yesterday
High -- | Low -- °F
Precip. -- in
Pressure 30.50 in
Visibility 10.0 miles
Clouds Overcast 4800 ft
Dew Point 60 °F
Humidity 93%
Rainfall 0.00 in
Snow Depth Not available.
7:38 AM 4:57 PM
Waxing Gibbous, 78% visible
METAR KPMV 092315Z AUTO 11004KT 10SM OVC048 M06/M13 A3050 RMK AO2 T10581127
Pressure 30.50 in
Visibility 10.0 miles
Clouds Overcast 4800 ft
Dew Point 60 °F
Humidity 93%
Rainfall 0.00 in
Snow Depth Not available.
7:38 AM 4:57 PM
Waxing Gibbous, 78% visible
METAR KPMV 092315Z AUTO 11004KT 10SM OVC048 M06/M13 A3050 RMK AO2 T10581127

10-Day Weather Forecast

Almanac

Astronomy

Dec. 09, 2016 Rise Set
Actual Time
Civil Twilight
Nautical Twilight
Astronomical Twilight
Moon
Length of Visible Light
Length of Day
Tomorrow will be .
, % of the Moon is Illuminated

Today's Extremes

State Highs State Lows

Community

WunderPhotos

Upload Photos

1,956,535 photos uploaded!

WunderBlog® & News

Nearby

Air Quality

  Air Quality AQ Index Pollutant
Not available.

Snow Depth

Station Depth Elevation

Earthquake Activity

City Distance Mag. Time & Date
Minimum magnitude displayed is 2.5.

Coastal Water Temperatures

Place Temperature

Stations

Nearby Weather Stations

Station Location Temp. Windchill Dew Point Humidity Wind Precip. Elev Updated Type
                   

Watches & Warnings

There are currently no watches in effect.